Chino, California
Current Conditions -  °F | °C
As of 6:53 PM on Tuesday 21 Oct 2014 (Local Time) from KCNO Reporting Station
Clear Clear  
Wind Chill: 68°   Ceiling: Unl
Heat Index: 68°   Visibility: 10mi
Dew Point: 56°   Wind: 6mph
Humidity: 65%   Direction: 240°WSW
Pressure: 29.86"   Gusts: NA
Location:  34.01°N, 117.68°W
Report Text: KCNO 220153Z 24005KT 10SM CLR 20/13 A2986 RMK AO2 SLP107 T02000133
Loading
Personal Weather Stations






























Interactive Weather Map
Tropical Storm Tracking
New forecast layout! Learn more

10-Day Weather Forecast

Advertisements
Track Severe Weather on mobile